sensor_id;sensor_type;location;lat;lon;timestamp;P1;durP1;ratioP1;P2;durP2;ratioP2
12567;SDS011;6349;50.904;6.136;2023-06-22T00:00:14;4.63;;;4.22;;
12567;SDS011;6349;50.904;6.136;2023-06-22T00:02:16;5.57;;;5.07;;
12567;SDS011;6349;50.904;6.136;2023-06-22T00:04:17;4.85;;;4.45;;
12567;SDS011;6349;50.904;6.136;2023-06-22T00:06:19;4.18;;;3.88;;
12567;SDS011;6349;50.904;6.136;2023-06-22T00:08:20;4.25;;;3.95;;
12567;SDS011;6349;50.904;6.136;2023-06-22T00:10:20;4.63;;;4.22;;
12567;SDS011;6349;50.904;6.136;2023-06-22T00:12:21;4.57;;;4.13;;
12567;SDS011;6349;50.904;6.136;2023-06-22T00:14:21;3.97;;;3.67;;
12567;SDS011;6349;50.904;6.136;2023-06-22T00:16:23;4.13;;;3.83;;
12567;SDS011;6349;50.904;6.136;2023-06-22T00:18:24;4.90;;;4.50;;
12567;SDS011;6349;50.904;6.136;2023-06-22T00:20:27;4.57;;;4.18;;
12567;SDS011;6349;50.904;6.136;2023-06-22T00:22:30;3.90;;;3.60;;
12567;SDS011;6349;50.904;6.136;2023-06-22T00:24:31;5.40;;;3.35;;
12567;SDS011;6349;50.904;6.136;2023-06-22T00:26:33;4.93;;;4.40;;
12567;SDS011;6349;50.904;6.136;2023-06-22T00:28:34;4.43;;;4.03;;
12567;SDS011;6349;50.904;6.136;2023-06-22T00:30:34;3.90;;;3.50;;
12567;SDS011;6349;50.904;6.136;2023-06-22T00:32:35;3.78;;;3.40;;
12567;SDS011;6349;50.904;6.136;2023-06-22T00:34:37;4.18;;;3.60;;
12567;SDS011;6349;50.904;6.136;2023-06-22T00:36:39;3.70;;;3.40;;
12567;SDS011;6349;50.904;6.136;2023-06-22T00:38:40;3.53;;;3.20;;
12567;SDS011;6349;50.904;6.136;2023-06-22T00:40:41;3.67;;;3.15;;
12567;SDS011;6349;50.904;6.136;2023-06-22T00:42:43;4.30;;;3.90;;
12567;SDS011;6349;50.904;6.136;2023-06-22T00:44:44;4.63;;;4.00;;
12567;SDS011;6349;50.904;6.136;2023-06-22T00:46:46;4.13;;;3.83;;
12567;SDS011;6349;50.904;6.136;2023-06-22T00:48:46;3.72;;;3.42;;
12567;SDS011;6349;50.904;6.136;2023-06-22T00:50:47;3.00;;;2.80;;
12567;SDS011;6349;50.904;6.136;2023-06-22T00:52:51;3.40;;;3.15;;
12567;SDS011;6349;50.904;6.136;2023-06-22T00:54:53;4.60;;;4.20;;
12567;SDS011;6349;50.904;6.136;2023-06-22T00:56:56;4.60;;;4.20;;
12567;SDS011;6349;50.904;6.136;2023-06-22T00:58:58;5.93;;;5.43;;
12567;SDS011;6349;50.904;6.136;2023-06-22T01:00:59;4.45;;;4.05;;
12567;SDS011;6349;50.904;6.136;2023-06-22T01:03:03;3.53;;;3.22;;
12567;SDS011;6349;50.904;6.136;2023-06-22T01:05:04;3.42;;;3.22;;
12567;SDS011;6349;50.904;6.136;2023-06-22T01:07:49;4.55;;;4.15;;
12567;SDS011;6349;50.904;6.136;2023-06-22T01:09:31;3.70;;;3.40;;
12567;SDS011;6349;50.904;6.136;2023-06-22T01:11:36;4.50;;;4.10;;
12567;SDS011;6349;50.904;6.136;2023-06-22T01:13:45;3.90;;;3.60;;
12567;SDS011;6349;50.904;6.136;2023-06-22T01:16:00;4.50;;;4.10;;
12567;SDS011;6349;50.904;6.136;2023-06-22T01:18:05;5.60;;;5.10;;
12567;SDS011;6349;50.904;6.136;2023-06-22T01:20:07;3.92;;;3.55;;
12567;SDS011;6349;50.904;6.136;2023-06-22T01:22:10;4.07;;;3.67;;
12567;SDS011;6349;50.904;6.136;2023-06-22T01:24:33;4.55;;;3.83;;
12567;SDS011;6349;50.904;6.136;2023-06-22T01:27:12;3.28;;;3.08;;
12567;SDS011;6349;50.904;6.136;2023-06-22T01:29:21;4.43;;;4.03;;
12567;SDS011;6349;50.904;6.136;2023-06-22T01:31:26;4.47;;;4.07;;
12567;SDS011;6349;50.904;6.136;2023-06-22T01:33:30;4.78;;;3.85;;
12567;SDS011;6349;50.904;6.136;2023-06-22T01:35:40;4.05;;;3.75;;
12567;SDS011;6349;50.904;6.136;2023-06-22T01:37:41;5.38;;;4.93;;
12567;SDS011;6349;50.904;6.136;2023-06-22T01:39:42;5.00;;;4.60;;
12567;SDS011;6349;50.904;6.136;2023-06-22T01:41:45;5.13;;;4.72;;
12567;SDS011;6349;50.904;6.136;2023-06-22T01:43:47;5.10;;;4.60;;
12567;SDS011;6349;50.904;6.136;2023-06-22T01:45:50;4.35;;;3.95;;
12567;SDS011;6349;50.904;6.136;2023-06-22T01:47:52;3.80;;;3.45;;
12567;SDS011;6349;50.904;6.136;2023-06-22T01:49:54;4.00;;;3.67;;
12567;SDS011;6349;50.904;6.136;2023-06-22T01:51:56;5.38;;;4.88;;
12567;SDS011;6349;50.904;6.136;2023-06-22T01:53:59;4.55;;;4.15;;
12567;SDS011;6349;50.904;6.136;2023-06-22T01:56:02;4.47;;;4.18;;
12567;SDS011;6349;50.904;6.136;2023-06-22T01:58:02;4.82;;;4.13;;
12567;SDS011;6349;50.904;6.136;2023-06-22T02:00:04;5.28;;;4.88;;
12567;SDS011;6349;50.904;6.136;2023-06-22T02:02:14;3.95;;;3.65;;
12567;SDS011;6349;50.904;6.136;2023-06-22T02:04:20;4.70;;;4.30;;
12567;SDS011;6349;50.904;6.136;2023-06-22T02:06:27;4.22;;;3.83;;
12567;SDS011;6349;50.904;6.136;2023-06-22T02:08:39;4.03;;;3.58;;
12567;SDS011;6349;50.904;6.136;2023-06-22T02:10:42;5.38;;;3.30;;
12567;SDS011;6349;50.904;6.136;2023-06-22T02:12:43;4.85;;;4.45;;
12567;SDS011;6349;50.904;6.136;2023-06-22T02:14:45;6.30;;;5.22;;
12567;SDS011;6349;50.904;6.136;2023-06-22T02:16:47;4.88;;;4.22;;
12567;SDS011;6349;50.904;6.136;2023-06-22T02:18:50;4.53;;;4.10;;
12567;SDS011;6349;50.904;6.136;2023-06-22T02:20:51;3.83;;;3.53;;
12567;SDS011;6349;50.904;6.136;2023-06-22T02:22:53;4.57;;;4.18;;
12567;SDS011;6349;50.904;6.136;2023-06-22T02:24:54;7.07;;;6.47;;
12567;SDS011;6349;50.904;6.136;2023-06-22T02:26:57;6.30;;;5.43;;
12567;SDS011;6349;50.904;6.136;2023-06-22T02:28:58;6.97;;;6.03;;
12567;SDS011;6349;50.904;6.136;2023-06-22T02:30:59;4.93;;;4.53;;
12567;SDS011;6349;50.904;6.136;2023-06-22T02:32:59;5.60;;;5.10;;
12567;SDS011;6349;50.904;6.136;2023-06-22T02:35:00;4.88;;;4.47;;
12567;SDS011;6349;50.904;6.136;2023-06-22T02:37:05;4.93;;;4.40;;
12567;SDS011;6349;50.904;6.136;2023-06-22T02:39:06;5.40;;;4.90;;
12567;SDS011;6349;50.904;6.136;2023-06-22T02:41:06;6.45;;;5.45;;
12567;SDS011;6349;50.904;6.136;2023-06-22T02:43:08;5.68;;;4.80;;
12567;SDS011;6349;50.904;6.136;2023-06-22T02:45:09;5.57;;;5.07;;
12567;SDS011;6349;50.904;6.136;2023-06-22T02:47:11;6.13;;;5.53;;
12567;SDS011;6349;50.904;6.136;2023-06-22T02:49:12;5.78;;;4.80;;
12567;SDS011;6349;50.904;6.136;2023-06-22T02:51:12;5.80;;;5.30;;
12567;SDS011;6349;50.904;6.136;2023-06-22T02:53:16;6.07;;;5.57;;
12567;SDS011;6349;50.904;6.136;2023-06-22T02:55:17;5.45;;;4.95;;
12567;SDS011;6349;50.904;6.136;2023-06-22T02:57:18;5.57;;;5.03;;
12567;SDS011;6349;50.904;6.136;2023-06-22T02:59:18;6.82;;;6.22;;
12567;SDS011;6349;50.904;6.136;2023-06-22T03:01:24;5.43;;;4.90;;
12567;SDS011;6349;50.904;6.136;2023-06-22T03:03:29;5.20;;;4.80;;
12567;SDS011;6349;50.904;6.136;2023-06-22T03:05:30;6.55;;;5.95;;
12567;SDS011;6349;50.904;6.136;2023-06-22T03:07:32;6.57;;;6.03;;
12567;SDS011;6349;50.904;6.136;2023-06-22T03:09:33;6.65;;;5.85;;
12567;SDS011;6349;50.904;6.136;2023-06-22T03:11:33;5.70;;;5.20;;
12567;SDS011;6349;50.904;6.136;2023-06-22T03:13:34;6.82;;;6.22;;
12567;SDS011;6349;50.904;6.136;2023-06-22T03:15:36;6.45;;;5.85;;
12567;SDS011;6349;50.904;6.136;2023-06-22T03:17:37;7.53;;;6.13;;
12567;SDS011;6349;50.904;6.136;2023-06-22T03:19:41;5.45;;;4.95;;
12567;SDS011;6349;50.904;6.136;2023-06-22T03:21:43;6.32;;;5.72;;
12567;SDS011;6349;50.904;6.136;2023-06-22T03:23:43;5.60;;;5.10;;
12567;SDS011;6349;50.904;6.136;2023-06-22T03:25:45;5.63;;;5.13;;
12567;SDS011;6349;50.904;6.136;2023-06-22T03:27:46;6.38;;;5.78;;
12567;SDS011;6349;50.904;6.136;2023-06-22T03:29:48;6.47;;;5.53;;
12567;SDS011;6349;50.904;6.136;2023-06-22T03:31:48;7.05;;;5.63;;
12567;SDS011;6349;50.904;6.136;2023-06-22T03:33:49;6.65;;;6.05;;
12567;SDS011;6349;50.904;6.136;2023-06-22T03:35:52;8.13;;;6.60;;
12567;SDS011;6349;50.904;6.136;2023-06-22T03:37:53;8.10;;;6.72;;
12567;SDS011;6349;50.904;6.136;2023-06-22T03:39:54;6.47;;;5.68;;
12567;SDS011;6349;50.904;6.136;2023-06-22T03:41:56;7.22;;;6.50;;
12567;SDS011;6349;50.904;6.136;2023-06-22T03:43:56;7.20;;;6.50;;
12567;SDS011;6349;50.904;6.136;2023-06-22T03:45:58;5.15;;;4.65;;
12567;SDS011;6349;50.904;6.136;2023-06-22T03:47:58;6.40;;;5.80;;
12567;SDS011;6349;50.904;6.136;2023-06-22T03:50:01;5.25;;;4.75;;
12567;SDS011;6349;50.904;6.136;2023-06-22T03:52:03;5.68;;;5.07;;
12567;SDS011;6349;50.904;6.136;2023-06-22T03:54:06;5.95;;;5.45;;
12567;SDS011;6349;50.904;6.136;2023-06-22T03:56:08;5.22;;;4.82;;
12567;SDS011;6349;50.904;6.136;2023-06-22T03:58:09;6.13;;;5.05;;
12567;SDS011;6349;50.904;6.136;2023-06-22T04:00:11;6.25;;;5.63;;
12567;SDS011;6349;50.904;6.136;2023-06-22T04:02:13;5.22;;;4.75;;
12567;SDS011;6349;50.904;6.136;2023-06-22T04:04:14;4.45;;;4.05;;
12567;SDS011;6349;50.904;6.136;2023-06-22T04:06:16;4.65;;;4.15;;
12567;SDS011;6349;50.904;6.136;2023-06-22T04:08:17;4.72;;;4.32;;
12567;SDS011;6349;50.904;6.136;2023-06-22T04:10:18;3.45;;;3.15;;
12567;SDS011;6349;50.904;6.136;2023-06-22T04:12:19;6.70;;;6.03;;
12567;SDS011;6349;50.904;6.136;2023-06-22T04:14:19;7.53;;;6.82;;
12567;SDS011;6349;50.904;6.136;2023-06-22T04:16:21;6.05;;;5.20;;
12567;SDS011;6349;50.904;6.136;2023-06-22T04:18:24;5.65;;;5.13;;
12567;SDS011;6349;50.904;6.136;2023-06-22T04:20:25;5.70;;;5.18;;
12567;SDS011;6349;50.904;6.136;2023-06-22T04:22:27;5.93;;;5.32;;
12567;SDS011;6349;50.904;6.136;2023-06-22T04:24:27;6.65;;;6.05;;
12567;SDS011;6349;50.904;6.136;2023-06-22T04:26:29;6.40;;;5.80;;
12567;SDS011;6349;50.904;6.136;2023-06-22T04:28:30;6.50;;;5.43;;
12567;SDS011;6349;50.904;6.136;2023-06-22T04:30:35;7.13;;;5.38;;
12567;SDS011;6349;50.904;6.136;2023-06-22T04:32:35;5.28;;;4.78;;
12567;SDS011;6349;50.904;6.136;2023-06-22T04:34:36;4.97;;;4.18;;
12567;SDS011;6349;50.904;6.136;2023-06-22T04:36:40;4.88;;;4.47;;
12567;SDS011;6349;50.904;6.136;2023-06-22T04:38:42;5.30;;;4.80;;
12567;SDS011;6349;50.904;6.136;2023-06-22T04:40:44;5.72;;;5.22;;
12567;SDS011;6349;50.904;6.136;2023-06-22T04:42:46;5.97;;;5.20;;
12567;SDS011;6349;50.904;6.136;2023-06-22T04:44:52;5.38;;;4.88;;
12567;SDS011;6349;50.904;6.136;2023-06-22T04:47:01;6.50;;;5.88;;
12567;SDS011;6349;50.904;6.136;2023-06-22T04:49:09;6.95;;;6.18;;
12567;SDS011;6349;50.904;6.136;2023-06-22T04:51:12;5.65;;;5.15;;
12567;SDS011;6349;50.904;6.136;2023-06-22T04:53:12;6.32;;;5.80;;
12567;SDS011;6349;50.904;6.136;2023-06-22T04:55:15;5.68;;;5.10;;
12567;SDS011;6349;50.904;6.136;2023-06-22T04:57:18;7.40;;;6.63;;
12567;SDS011;6349;50.904;6.136;2023-06-22T04:59:18;4.95;;;4.55;;
12567;SDS011;6349;50.904;6.136;2023-06-22T05:01:19;5.70;;;4.90;;
12567;SDS011;6349;50.904;6.136;2023-06-22T05:03:26;5.43;;;4.88;;
12567;SDS011;6349;50.904;6.136;2023-06-22T05:05:28;6.45;;;5.78;;
12567;SDS011;6349;50.904;6.136;2023-06-22T05:07:29;5.80;;;5.25;;
12567;SDS011;6349;50.904;6.136;2023-06-22T05:09:30;4.53;;;4.13;;
12567;SDS011;6349;50.904;6.136;2023-06-22T05:11:31;6.75;;;5.10;;
12567;SDS011;6349;50.904;6.136;2023-06-22T05:13:32;7.28;;;6.53;;
12567;SDS011;6349;50.904;6.136;2023-06-22T05:15:34;7.80;;;7.07;;
12567;SDS011;6349;50.904;6.136;2023-06-22T05:17:41;6.00;;;5.35;;
12567;SDS011;6349;50.904;6.136;2023-06-22T05:19:46;8.88;;;8.07;;
12567;SDS011;6349;50.904;6.136;2023-06-22T05:21:49;6.72;;;6.13;;
12567;SDS011;6349;50.904;6.136;2023-06-22T05:23:51;5.88;;;5.22;;
12567;SDS011;6349;50.904;6.136;2023-06-22T05:25:54;6.10;;;5.50;;
12567;SDS011;6349;50.904;6.136;2023-06-22T05:27:58;6.28;;;5.72;;
12567;SDS011;6349;50.904;6.136;2023-06-22T05:29:59;7.13;;;6.43;;
12567;SDS011;6349;50.904;6.136;2023-06-22T05:31:59;6.03;;;5.43;;
12567;SDS011;6349;50.904;6.136;2023-06-22T05:34:00;6.93;;;6.28;;
12567;SDS011;6349;50.904;6.136;2023-06-22T05:36:02;5.80;;;5.20;;
12567;SDS011;6349;50.904;6.136;2023-06-22T05:38:02;7.50;;;6.80;;
12567;SDS011;6349;50.904;6.136;2023-06-22T05:40:03;6.07;;;5.53;;
12567;SDS011;6349;50.904;6.136;2023-06-22T05:42:07;7.55;;;6.30;;
12567;SDS011;6349;50.904;6.136;2023-06-22T05:44:08;8.57;;;7.72;;
12567;SDS011;6349;50.904;6.136;2023-06-22T05:46:10;6.05;;;5.45;;
12567;SDS011;6349;50.904;6.136;2023-06-22T05:48:11;6.95;;;6.25;;
12567;SDS011;6349;50.904;6.136;2023-06-22T05:50:13;7.80;;;6.10;;
12567;SDS011;6349;50.904;6.136;2023-06-22T05:52:14;9.13;;;8.13;;
12567;SDS011;6349;50.904;6.136;2023-06-22T05:54:16;6.78;;;6.18;;
12567;SDS011;6349;50.904;6.136;2023-06-22T05:56:19;9.18;;;8.23;;
12567;SDS011;6349;50.904;6.136;2023-06-22T05:58:20;7.57;;;6.70;;
12567;SDS011;6349;50.904;6.136;2023-06-22T06:00:22;8.85;;;7.68;;
12567;SDS011;6349;50.904;6.136;2023-06-22T06:02:25;8.48;;;7.60;;
12567;SDS011;6349;50.904;6.136;2023-06-22T06:04:27;8.48;;;7.43;;
12567;SDS011;6349;50.904;6.136;2023-06-22T06:06:29;7.78;;;6.38;;
12567;SDS011;6349;50.904;6.136;2023-06-22T06:08:29;7.03;;;6.28;;
12567;SDS011;6349;50.904;6.136;2023-06-22T06:10:30;7.38;;;6.68;;
12567;SDS011;6349;50.904;6.136;2023-06-22T06:12:32;8.18;;;7.40;;
12567;SDS011;6349;50.904;6.136;2023-06-22T06:14:32;8.80;;;7.90;;
12567;SDS011;6349;50.904;6.136;2023-06-22T06:16:34;7.88;;;7.13;;
12567;SDS011;6349;50.904;6.136;2023-06-22T06:18:35;7.43;;;6.72;;
12567;SDS011;6349;50.904;6.136;2023-06-22T06:20:38;10.32;;;6.80;;
12567;SDS011;6349;50.904;6.136;2023-06-22T06:22:40;7.65;;;6.65;;
12567;SDS011;6349;50.904;6.136;2023-06-22T06:24:42;7.63;;;6.80;;
12567;SDS011;6349;50.904;6.136;2023-06-22T06:26:44;9.10;;;7.82;;
12567;SDS011;6349;50.904;6.136;2023-06-22T06:28:45;8.88;;;7.97;;
12567;SDS011;6349;50.904;6.136;2023-06-22T06:30:46;8.50;;;6.93;;
12567;SDS011;6349;50.904;6.136;2023-06-22T06:32:47;9.57;;;7.80;;
12567;SDS011;6349;50.904;6.136;2023-06-22T06:34:48;6.60;;;5.47;;
12567;SDS011;6349;50.904;6.136;2023-06-22T06:36:49;7.15;;;6.45;;
12567;SDS011;6349;50.904;6.136;2023-06-22T06:38:50;8.63;;;7.50;;
12567;SDS011;6349;50.904;6.136;2023-06-22T06:40:50;7.75;;;6.95;;
12567;SDS011;6349;50.904;6.136;2023-06-22T06:42:52;8.55;;;6.90;;
12567;SDS011;6349;50.904;6.136;2023-06-22T06:44:54;9.73;;;6.80;;
12567;SDS011;6349;50.904;6.136;2023-06-22T06:46:56;8.35;;;7.47;;
12567;SDS011;6349;50.904;6.136;2023-06-22T06:48:58;9.00;;;6.72;;
12567;SDS011;6349;50.904;6.136;2023-06-22T06:51:00;9.57;;;7.47;;
12567;SDS011;6349;50.904;6.136;2023-06-22T06:53:00;8.55;;;7.07;;
12567;SDS011;6349;50.904;6.136;2023-06-22T06:55:02;8.38;;;7.57;;
12567;SDS011;6349;50.904;6.136;2023-06-22T06:57:12;8.88;;;7.03;;
12567;SDS011;6349;50.904;6.136;2023-06-22T06:59:17;7.30;;;6.60;;
12567;SDS011;6349;50.904;6.136;2023-06-22T07:01:19;7.60;;;6.90;;
12567;SDS011;6349;50.904;6.136;2023-06-22T07:03:21;6.13;;;5.55;;
12567;SDS011;6349;50.904;6.136;2023-06-22T07:05:24;9.57;;;8.57;;
12567;SDS011;6349;50.904;6.136;2023-06-22T07:07:24;9.40;;;8.50;;
12567;SDS011;6349;50.904;6.136;2023-06-22T07:09:26;8.70;;;7.88;;
12567;SDS011;6349;50.904;6.136;2023-06-22T07:11:28;11.10;;;8.82;;
12567;SDS011;6349;50.904;6.136;2023-06-22T07:13:29;9.13;;;8.30;;
12567;SDS011;6349;50.904;6.136;2023-06-22T07:15:31;9.98;;;8.60;;
12567;SDS011;6349;50.904;6.136;2023-06-22T07:17:33;8.60;;;7.80;;
12567;SDS011;6349;50.904;6.136;2023-06-22T07:19:35;9.60;;;7.57;;
12567;SDS011;6349;50.904;6.136;2023-06-22T07:21:37;10.73;;;8.02;;
12567;SDS011;6349;50.904;6.136;2023-06-22T07:23:40;11.30;;;8.20;;
12567;SDS011;6349;50.904;6.136;2023-06-22T07:25:42;10.15;;;8.30;;
12567;SDS011;6349;50.904;6.136;2023-06-22T07:27:44;10.35;;;7.43;;
12567;SDS011;6349;50.904;6.136;2023-06-22T07:29:46;10.05;;;8.90;;
12567;SDS011;6349;50.904;6.136;2023-06-22T07:31:47;8.10;;;7.30;;
12567;SDS011;6349;50.904;6.136;2023-06-22T07:33:50;9.05;;;7.75;;
12567;SDS011;6349;50.904;6.136;2023-06-22T07:35:52;8.77;;;7.85;;
12567;SDS011;6349;50.904;6.136;2023-06-22T07:37:53;9.43;;;8.50;;
12567;SDS011;6349;50.904;6.136;2023-06-22T07:39:53;10.07;;;9.18;;
12567;SDS011;6349;50.904;6.136;2023-06-22T07:41:59;8.80;;;7.93;;
12567;SDS011;6349;50.904;6.136;2023-06-22T07:44:00;9.68;;;7.78;;
12567;SDS011;6349;50.904;6.136;2023-06-22T07:46:01;8.60;;;7.90;;
12567;SDS011;6349;50.904;6.136;2023-06-22T07:48:07;9.55;;;8.15;;
12567;SDS011;6349;50.904;6.136;2023-06-22T07:50:09;8.93;;;8.02;;
12567;SDS011;6349;50.904;6.136;2023-06-22T07:52:10;8.73;;;7.97;;
12567;SDS011;6349;50.904;6.136;2023-06-22T07:54:11;9.68;;;7.82;;
12567;SDS011;6349;50.904;6.136;2023-06-22T07:56:13;7.93;;;7.13;;
12567;SDS011;6349;50.904;6.136;2023-06-22T07:58:18;9.00;;;8.20;;
12567;SDS011;6349;50.904;6.136;2023-06-22T08:00:20;9.85;;;8.00;;
12567;SDS011;6349;50.904;6.136;2023-06-22T08:02:22;9.75;;;8.35;;
12567;SDS011;6349;50.904;6.136;2023-06-22T08:04:23;11.60;;;8.45;;
12567;SDS011;6349;50.904;6.136;2023-06-22T08:06:25;8.43;;;7.60;;
12567;SDS011;6349;50.904;6.136;2023-06-22T08:08:25;10.18;;;7.82;;
12567;SDS011;6349;50.904;6.136;2023-06-22T08:10:26;9.32;;;8.48;;
12567;SDS011;6349;50.904;6.136;2023-06-22T08:12:26;10.55;;;8.65;;
12567;SDS011;6349;50.904;6.136;2023-06-22T08:14:29;8.73;;;7.82;;
12567;SDS011;6349;50.904;6.136;2023-06-22T08:16:31;8.75;;;7.75;;
12567;SDS011;6349;50.904;6.136;2023-06-22T08:18:32;8.93;;;7.70;;
12567;SDS011;6349;50.904;6.136;2023-06-22T08:20:32;9.02;;;8.13;;
12567;SDS011;6349;50.904;6.136;2023-06-22T08:22:35;9.20;;;8.20;;
12567;SDS011;6349;50.904;6.136;2023-06-22T08:24:36;10.10;;;9.10;;
12567;SDS011;6349;50.904;6.136;2023-06-22T08:26:38;9.35;;;8.43;;
12567;SDS011;6349;50.904;6.136;2023-06-22T08:28:39;9.55;;;7.95;;
12567;SDS011;6349;50.904;6.136;2023-06-22T08:30:41;10.43;;;8.50;;
12567;SDS011;6349;50.904;6.136;2023-06-22T08:32:41;9.13;;;8.32;;
12567;SDS011;6349;50.904;6.136;2023-06-22T08:34:43;9.10;;;8.23;;
12567;SDS011;6349;50.904;6.136;2023-06-22T08:36:45;9.40;;;8.50;;
12567;SDS011;6349;50.904;6.136;2023-06-22T08:38:52;10.30;;;9.30;;
12567;SDS011;6349;50.904;6.136;2023-06-22T08:40:53;10.27;;;7.68;;
12567;SDS011;6349;50.904;6.136;2023-06-22T08:42:55;10.85;;;9.75;;
12567;SDS011;6349;50.904;6.136;2023-06-22T08:44:56;9.73;;;8.93;;
12567;SDS011;6349;50.904;6.136;2023-06-22T08:46:58;10.50;;;9.50;;
12567;SDS011;6349;50.904;6.136;2023-06-22T08:49:00;10.82;;;9.82;;
12567;SDS011;6349;50.904;6.136;2023-06-22T08:51:02;9.52;;;8.65;;
12567;SDS011;6349;50.904;6.136;2023-06-22T08:53:03;9.48;;;8.50;;
12567;SDS011;6349;50.904;6.136;2023-06-22T08:55:04;9.75;;;8.75;;
12567;SDS011;6349;50.904;6.136;2023-06-22T08:57:06;9.60;;;8.70;;
12567;SDS011;6349;50.904;6.136;2023-06-22T08:59:07;10.95;;;9.75;;
12567;SDS011;6349;50.904;6.136;2023-06-22T09:01:07;10.70;;;8.35;;
12567;SDS011;6349;50.904;6.136;2023-06-22T09:03:09;9.80;;;8.90;;
12567;SDS011;6349;50.904;6.136;2023-06-22T09:05:10;9.88;;;8.55;;
12567;SDS011;6349;50.904;6.136;2023-06-22T09:07:12;9.68;;;8.85;;
12567;SDS011;6349;50.904;6.136;2023-06-22T09:09:13;11.38;;;9.63;;
12567;SDS011;6349;50.904;6.136;2023-06-22T09:11:14;11.05;;;10.05;;
12567;SDS011;6349;50.904;6.136;2023-06-22T09:13:16;10.15;;;9.18;;
12567;SDS011;6349;50.904;6.136;2023-06-22T09:15:18;10.45;;;9.32;;
12567;SDS011;6349;50.904;6.136;2023-06-22T09:17:18;10.80;;;9.50;;
12567;SDS011;6349;50.904;6.136;2023-06-22T09:19:19;11.55;;;10.45;;
12567;SDS011;6349;50.904;6.136;2023-06-22T09:21:20;15.27;;;9.63;;
12567;SDS011;6349;50.904;6.136;2023-06-22T09:23:21;11.88;;;10.88;;
12567;SDS011;6349;50.904;6.136;2023-06-22T09:25:24;9.45;;;8.55;;
12567;SDS011;6349;50.904;6.136;2023-06-22T09:27:26;10.50;;;9.50;;
12567;SDS011;6349;50.904;6.136;2023-06-22T09:29:26;10.55;;;9.55;;
12567;SDS011;6349;50.904;6.136;2023-06-22T09:31:27;10.80;;;9.60;;
12567;SDS011;6349;50.904;6.136;2023-06-22T09:33:28;12.48;;;10.73;;
12567;SDS011;6349;50.904;6.136;2023-06-22T09:35:30;10.13;;;9.05;;
12567;SDS011;6349;50.904;6.136;2023-06-22T09:37:31;11.68;;;9.00;;
12567;SDS011;6349;50.904;6.136;2023-06-22T09:39:32;11.18;;;10.10;;
12567;SDS011;6349;50.904;6.136;2023-06-22T09:41:33;9.70;;;8.60;;
12567;SDS011;6349;50.904;6.136;2023-06-22T09:43:35;10.73;;;9.63;;
12567;SDS011;6349;50.904;6.136;2023-06-22T09:45:37;9.52;;;8.68;;
12567;SDS011;6349;50.904;6.136;2023-06-22T09:47:37;10.80;;;9.80;;
12567;SDS011;6349;50.904;6.136;2023-06-22T09:49:38;9.48;;;8.63;;
12567;SDS011;6349;50.904;6.136;2023-06-22T09:51:40;8.82;;;7.97;;
12567;SDS011;6349;50.904;6.136;2023-06-22T09:53:42;10.98;;;9.85;;
12567;SDS011;6349;50.904;6.136;2023-06-22T09:55:44;8.63;;;7.80;;
12567;SDS011;6349;50.904;6.136;2023-06-22T09:57:44;9.73;;;8.65;;
12567;SDS011;6349;50.904;6.136;2023-06-22T09:59:45;9.18;;;8.38;;
12567;SDS011;6349;50.904;6.136;2023-06-22T10:01:45;9.90;;;9.00;;
12567;SDS011;6349;50.904;6.136;2023-06-22T10:03:47;9.48;;;8.25;;
12567;SDS011;6349;50.904;6.136;2023-06-22T10:05:49;8.98;;;8.10;;
12567;SDS011;6349;50.904;6.136;2023-06-22T10:07:51;8.93;;;8.02;;
12567;SDS011;6349;50.904;6.136;2023-06-22T10:09:53;8.82;;;8.02;;
12567;SDS011;6349;50.904;6.136;2023-06-22T10:11:53;8.43;;;7.63;;
12567;SDS011;6349;50.904;6.136;2023-06-22T10:13:54;9.10;;;8.30;;
12567;SDS011;6349;50.904;6.136;2023-06-22T10:15:56;10.05;;;9.25;;
12567;SDS011;6349;50.904;6.136;2023-06-22T10:17:57;10.57;;;9.57;;
12567;SDS011;6349;50.904;6.136;2023-06-22T10:20:00;8.65;;;7.95;;
12567;SDS011;6349;50.904;6.136;2023-06-22T10:22:02;10.43;;;9.57;;
12567;SDS011;6349;50.904;6.136;2023-06-22T10:24:04;10.00;;;9.00;;
12567;SDS011;6349;50.904;6.136;2023-06-22T10:26:07;10.02;;;9.13;;
12567;SDS011;6349;50.904;6.136;2023-06-22T10:28:08;11.02;;;10.02;;
12567;SDS011;6349;50.904;6.136;2023-06-22T10:30:09;10.60;;;9.60;;
12567;SDS011;6349;50.904;6.136;2023-06-22T10:32:12;10.05;;;9.25;;
12567;SDS011;6349;50.904;6.136;2023-06-22T10:34:13;9.63;;;8.82;;
12567;SDS011;6349;50.904;6.136;2023-06-22T10:36:14;11.52;;;10.48;;
12567;SDS011;6349;50.904;6.136;2023-06-22T10:38:15;10.18;;;9.25;;
12567;SDS011;6349;50.904;6.136;2023-06-22T10:40:16;11.90;;;10.90;;
12567;SDS011;6349;50.904;6.136;2023-06-22T10:42:20;13.65;;;12.55;;
12567;SDS011;6349;50.904;6.136;2023-06-22T10:44:20;14.63;;;13.25;;
12567;SDS011;6349;50.904;6.136;2023-06-22T10:46:24;12.68;;;11.60;;
12567;SDS011;6349;50.904;6.136;2023-06-22T10:48:25;13.38;;;12.23;;
12567;SDS011;6349;50.904;6.136;2023-06-22T10:50:26;13.00;;;11.90;;
12567;SDS011;6349;50.904;6.136;2023-06-22T10:52:28;11.52;;;10.52;;
12567;SDS011;6349;50.904;6.136;2023-06-22T10:54:28;12.50;;;11.27;;
12567;SDS011;6349;50.904;6.136;2023-06-22T10:56:30;13.07;;;11.80;;
12567;SDS011;6349;50.904;6.136;2023-06-22T10:58:30;15.73;;;14.25;;
12567;SDS011;6349;50.904;6.136;2023-06-22T11:00:32;12.60;;;11.35;;
12567;SDS011;6349;50.904;6.136;2023-06-22T11:02:34;13.15;;;11.95;;
12567;SDS011;6349;50.904;6.136;2023-06-22T11:04:36;13.85;;;12.65;;
12567;SDS011;6349;50.904;6.136;2023-06-22T11:06:38;14.80;;;13.50;;
12567;SDS011;6349;50.904;6.136;2023-06-22T11:08:43;13.50;;;12.40;;
12567;SDS011;6349;50.904;6.136;2023-06-22T11:10:46;14.50;;;13.25;;
12567;SDS011;6349;50.904;6.136;2023-06-22T11:12:48;13.43;;;12.23;;
12567;SDS011;6349;50.904;6.136;2023-06-22T11:14:50;13.55;;;12.18;;
12567;SDS011;6349;50.904;6.136;2023-06-22T11:16:52;12.75;;;11.52;;
12567;SDS011;6349;50.904;6.136;2023-06-22T11:18:54;14.60;;;13.25;;
12567;SDS011;6349;50.904;6.136;2023-06-22T11:20:56;13.27;;;12.05;;
12567;SDS011;6349;50.904;6.136;2023-06-22T11:22:58;13.82;;;12.52;;
12567;SDS011;6349;50.904;6.136;2023-06-22T11:25:00;11.88;;;10.77;;
12567;SDS011;6349;50.904;6.136;2023-06-22T11:27:02;14.40;;;13.20;;
12567;SDS011;6349;50.904;6.136;2023-06-22T11:29:04;13.52;;;12.30;;
12567;SDS011;6349;50.904;6.136;2023-06-22T11:31:08;13.68;;;12.48;;
12567;SDS011;6349;50.904;6.136;2023-06-22T11:33:09;13.55;;;12.43;;
12567;SDS011;6349;50.904;6.136;2023-06-22T11:35:09;11.82;;;10.85;;
12567;SDS011;6349;50.904;6.136;2023-06-22T11:37:11;12.52;;;11.35;;
12567;SDS011;6349;50.904;6.136;2023-06-22T11:39:12;10.90;;;9.98;;
12567;SDS011;6349;50.904;6.136;2023-06-22T11:41:15;10.93;;;9.98;;
12567;SDS011;6349;50.904;6.136;2023-06-22T11:43:17;11.25;;;9.82;;
12567;SDS011;6349;50.904;6.136;2023-06-22T11:45:19;8.93;;;8.15;;
12567;SDS011;6349;50.904;6.136;2023-06-22T11:47:20;8.75;;;7.90;;
12567;SDS011;6349;50.904;6.136;2023-06-22T11:49:22;9.10;;;8.30;;
12567;SDS011;6349;50.904;6.136;2023-06-22T11:51:24;8.32;;;7.63;;
12567;SDS011;6349;50.904;6.136;2023-06-22T11:53:26;9.43;;;8.52;;
12567;SDS011;6349;50.904;6.136;2023-06-22T11:55:28;8.70;;;7.90;;
12567;SDS011;6349;50.904;6.136;2023-06-22T11:57:32;8.27;;;7.57;;
12567;SDS011;6349;50.904;6.136;2023-06-22T11:59:35;9.23;;;8.43;;
12567;SDS011;6349;50.904;6.136;2023-06-22T12:01:37;9.52;;;8.63;;
12567;SDS011;6349;50.904;6.136;2023-06-22T12:03:39;11.40;;;10.02;;
12567;SDS011;6349;50.904;6.136;2023-06-22T12:05:40;12.77;;;11.50;;
12567;SDS011;6349;50.904;6.136;2023-06-22T12:07:41;14.45;;;12.93;;
12567;SDS011;6349;50.904;6.136;2023-06-22T12:09:42;16.90;;;13.20;;
12567;SDS011;6349;50.904;6.136;2023-06-22T12:11:42;17.70;;;14.95;;
12567;SDS011;6349;50.904;6.136;2023-06-22T12:13:43;17.13;;;12.98;;
12567;SDS011;6349;50.904;6.136;2023-06-22T12:15:44;22.23;;;17.10;;
12567;SDS011;6349;50.904;6.136;2023-06-22T12:17:46;15.48;;;12.52;;
12567;SDS011;6349;50.904;6.136;2023-06-22T12:19:49;11.23;;;10.18;;
12567;SDS011;6349;50.904;6.136;2023-06-22T12:21:51;15.05;;;12.35;;